This is the latest recevied weather packets stored in our database for station/object JA1RBY-13. If no packets are shown the sender has not sent any weather packets the latest 10 day(s).
| Time | Temp. | Humidity | Pressure | Rain* | Wind** | Luminosity | Snow |
|---|---|---|---|---|---|---|---|
| 1777863810 | 29.44° C | 40% | 996.4 hPa | 0 mm | - | - | - |
| 1777862910 | 29.44° C | 39% | 996.7 hPa | 0 mm | - | - | - |
| 1777862011 | 28.89° C | 42% | 996.9 hPa | 0 mm | - | - | - |
| 1777861111 | 28.89° C | 43% | 997 hPa | 0 mm | - | - | - |
| 1777860209 | 28.33° C | 44% | 997.3 hPa | 0 mm | - | - | - |
| 1777859311 | 28.33° C | 46% | 997.3 hPa | 0 mm | - | - | - |
| 1777858412 | 28.33° C | 46% | 997.4 hPa | 0 mm | - | - | - |
| 1777856610 | 27.22° C | 50% | 997.3 hPa | 0 mm | - | - | - |
| 1777855710 | 27.78° C | 50% | 997.2 hPa | 0 mm | - | - | - |
| 1777853910 | 27.22° C | 53% | 996.9 hPa | 0 mm | - | - | - |
| 1777853010 | 27.22° C | 54% | 996.9 hPa | 0 mm | - | - | - |
| 1777852110 | 25.56° C | 57% | 996.6 hPa | 0 mm | - | - | - |
| 1777849410 | 23.33° C | 62% | 996.5 hPa | 0 mm | - | - | - |
| 1777848509 | 22.78° C | 65% | 996.8 hPa | 0 mm | - | - | - |
| 1777847611 | 22.22° C | 67% | 996.4 hPa | 0 mm | - | - | - |
| 1777846711 | 22.22° C | 69% | 996.2 hPa | 0 mm | - | - | - |
| 1777844911 | 23.33° C | 70% | 996.5 hPa | 0 mm | - | - | - |
| 1777843109 | 21.67° C | 83% | 996.9 hPa | 0.51 mm | - | - | - |
| 1777842211 | 20.56° C | 86% | 997.4 hPa | 1.02 mm | - | - | - |
| 1777841310 | 20.56° C | 86% | 997.3 hPa | 2.29 mm | - | - | - |
| 1777840411 | 20° C | 86% | 997.8 hPa | 2.54 mm | - | - | - |
| 1777839510 | 19.44° C | 85% | 998 hPa | 3.3 mm | - | - | - |
| 1777838611 | 19.44° C | 84% | 998.5 hPa | 2.54 mm | - | - | - |
| 1777837711 | 19.44° C | 84% | 997.7 hPa | 1.52 mm | - | - | - |
| 1777835910 | 19.44° C | 84% | 998.1 hPa | 0.76 mm | - | - | - |
* Rain latest hour (hover to see other rain measurements)
** Current wind speed in m/s (hover to see current wind gust speed)